createdAt,value
2018-12-06T00:00:08.463Z,67.30
2018-12-06T00:01:05.512Z,67.40
2018-12-06T00:02:05.769Z,67.60
2018-12-06T00:03:06.056Z,67.90
2018-12-06T00:04:05.230Z,67.80
2018-12-06T00:05:05.467Z,67.90
2018-12-06T00:06:05.706Z,67.80
2018-12-06T00:07:05.810Z,67.90
2018-12-06T00:08:05.936Z,68.10
2018-12-06T00:09:14.260Z,68.40
2018-12-06T00:10:07.826Z,68.40
2018-12-06T00:11:05.845Z,68.40
2018-12-06T00:12:06.098Z,68.30
2018-12-06T00:14:05.887Z,68.40
2018-12-06T00:14:10.404Z,68.40
2018-12-06T00:15:08.036Z,68.60
2018-12-06T00:16:05.518Z,68.60
2018-12-06T00:17:05.696Z,68.60
2018-12-06T00:18:05.777Z,69.10
2018-12-06T00:19:05.980Z,69.50
2018-12-06T00:20:05.101Z,69.50
2018-12-06T00:21:05.213Z,69.60
2018-12-06T00:23:05.784Z,72.40
2018-12-06T00:24:05.870Z,71.50
2018-12-06T00:25:05.132Z,71.80
2018-12-06T00:26:05.287Z,72.00
2018-12-06T00:27:07.940Z,72.10
2018-12-06T00:28:08.396Z,72.00
2018-12-06T00:29:05.369Z,72.00
2018-12-06T00:30:05.508Z,72.20
2018-12-06T00:31:08.187Z,72.30
2018-12-06T00:32:05.155Z,71.90
2018-12-06T00:33:07.850Z,72.20
2018-12-06T00:34:08.452Z,71.10
2018-12-06T00:35:05.537Z,71.00
2018-12-06T00:36:08.173Z,70.70
2018-12-06T00:37:05.315Z,70.80
2018-12-06T00:38:05.492Z,70.80
2018-12-06T00:39:05.670Z,71.00
2018-12-06T00:40:05.869Z,71.10
2018-12-06T00:41:07.500Z,71.30
2018-12-06T00:42:07.971Z,70.90
2018-12-06T00:43:05.928Z,70.90
2018-12-06T00:44:07.922Z,70.90
2018-12-06T00:45:06.033Z,70.90
2018-12-06T00:46:05.185Z,71.00
2018-12-06T00:47:07.784Z,71.00
2018-12-06T00:48:05.869Z,71.00
2018-12-06T00:49:05.145Z,71.10
2018-12-06T00:50:07.939Z,71.00
2018-12-06T00:51:08.508Z,71.00
2018-12-06T00:52:05.646Z,71.00
2018-12-06T00:53:08.424Z,71.20
2018-12-06T00:54:05.587Z,71.20
2018-12-06T00:55:05.715Z,71.10
2018-12-06T00:56:05.959Z,71.00
2018-12-06T00:57:05.064Z,70.90
2018-12-06T00:58:05.206Z,70.70
2018-12-06T00:59:05.342Z,70.70
2018-12-06T01:00:07.960Z,70.70
2018-12-06T01:01:08.431Z,70.80
2018-12-06T01:02:07.900Z,70.80
2018-12-06T01:03:10.910Z,70.60
2018-12-06T01:04:08.406Z,70.70
2018-12-06T01:05:07.796Z,70.70
2018-12-06T01:06:08.246Z,70.80
2018-12-06T01:07:07.717Z,70.80
2018-12-06T01:08:08.555Z,70.60
2018-12-06T01:09:05.493Z,70.60
2018-12-06T01:10:08.071Z,70.50
2018-12-06T01:11:05.057Z,70.60
2018-12-06T01:12:07.735Z,70.40
2018-12-06T01:13:08.256Z,70.30
2018-12-06T01:14:07.693Z,70.30
2018-12-06T01:15:05.730Z,70.40
2018-12-06T01:16:08.369Z,70.40
2018-12-06T01:17:05.349Z,70.40
2018-12-06T01:18:05.447Z,70.50
2018-12-06T01:19:05.491Z,70.40
2018-12-06T01:20:05.581Z,70.50
2018-12-06T01:21:05.718Z,70.60
2018-12-06T01:22:05.762Z,70.60
2018-12-06T01:23:05.816Z,70.60
2018-12-06T01:24:08.406Z,70.70
2018-12-06T01:25:05.534Z,70.70
2018-12-06T01:26:05.650Z,70.80
2018-12-06T01:27:05.871Z,70.80
2018-12-06T01:28:04.947Z,70.70
2018-12-06T01:29:08.039Z,70.70
2018-12-06T01:30:05.004Z,70.70
2018-12-06T01:31:05.192Z,70.80
2018-12-06T01:32:05.296Z,70.80
2018-12-06T01:33:05.457Z,64.40
2018-12-06T01:34:08.165Z,70.20
2018-12-06T01:35:10.228Z,69.90
2018-12-06T01:36:07.760Z,69.70
2018-12-06T01:37:05.939Z,69.80
2018-12-06T01:38:05.050Z,69.80
2018-12-06T01:39:15.236Z,69.90
2018-12-06T01:40:07.925Z,69.70
2018-12-06T01:41:08.537Z,69.70
2018-12-06T01:42:05.521Z,69.80
2018-12-06T01:43:05.621Z,69.70
2018-12-06T01:44:05.687Z,69.80
2018-12-06T01:45:10.805Z,69.50
2018-12-06T01:46:05.760Z,69.50
2018-12-06T01:47:05.842Z,69.40
2018-12-06T01:48:06.007Z,69.30
2018-12-06T01:49:10.407Z,68.90
2018-12-06T01:50:05.315Z,68.80
2018-12-06T01:51:05.471Z,69.00
2018-12-06T01:52:08.130Z,69.00
2018-12-06T01:53:05.164Z,69.00
2018-12-06T01:54:05.338Z,69.10
2018-12-06T01:55:05.442Z,69.00
2018-12-06T01:56:05.526Z,69.10
2018-12-06T01:57:05.731Z,69.00
2018-12-06T01:58:05.791Z,68.90
2018-12-06T01:59:05.943Z,68.90
2018-12-06T02:00:05.008Z,68.80
2018-12-06T02:01:05.053Z,68.90
2018-12-06T02:02:07.649Z,68.30
2018-12-06T02:03:08.165Z,68.10
2018-12-06T02:04:05.198Z,68.20
2018-12-06T02:05:05.259Z,68.10
2018-12-06T02:06:05.442Z,68.20
2018-12-06T02:07:08.114Z,68.40
2018-12-06T02:08:05.060Z,68.40
2018-12-06T02:09:07.797Z,68.40
2018-12-06T02:10:10.807Z,68.30
2018-12-06T02:11:08.435Z,68.30
2018-12-06T02:12:07.989Z,68.10
2018-12-06T02:13:07.527Z,68.30
2018-12-06T02:14:08.108Z,68.40
2018-12-06T02:15:05.099Z,68.40
2018-12-06T02:16:07.652Z,68.40
2018-12-06T02:17:05.618Z,68.40
2018-12-06T02:18:05.738Z,68.30
2018-12-06T02:19:08.402Z,68.20
2018-12-06T02:20:07.924Z,68.00
2018-12-06T02:21:05.878Z,68.00
2018-12-06T02:22:04.972Z,67.20
2018-12-06T02:23:05.133Z,66.90
2018-12-06T02:24:05.249Z,66.90
2018-12-06T02:25:05.408Z,66.90
2018-12-06T02:26:08.127Z,68.10
2018-12-06T02:27:05.152Z,68.00
2018-12-06T02:28:05.337Z,68.00
2018-12-06T02:29:05.744Z,67.90
2018-12-06T02:30:05.796Z,67.90
2018-12-06T02:31:08.435Z,67.70
2018-12-06T02:32:08.071Z,67.70
2018-12-06T02:33:07.741Z,67.60
2018-12-06T02:34:05.780Z,67.60
2018-12-06T02:35:05.908Z,67.70
2018-12-06T02:36:04.989Z,67.80
2018-12-06T02:37:07.699Z,67.70
2018-12-06T02:38:05.644Z,67.70
2018-12-06T02:39:08.254Z,67.80
2018-12-06T02:40:05.174Z,67.80
2018-12-06T02:41:10.328Z,67.70
2018-12-06T02:42:05.348Z,67.70
2018-12-06T02:43:05.528Z,67.70
2018-12-06T02:44:10.637Z,66.20
2018-12-06T02:45:05.540Z,66.20
2018-12-06T02:46:05.620Z,66.20
2018-12-06T02:47:08.256Z,66.40
2018-12-06T02:48:05.261Z,66.40
2018-12-06T02:49:05.844Z,66.50
2018-12-06T02:50:06.010Z,66.60
2018-12-06T02:51:07.803Z,66.60
2018-12-06T02:52:05.799Z,66.60
2018-12-06T02:53:05.884Z,66.20
2018-12-06T02:54:10.146Z,66.40
2018-12-06T02:55:05.033Z,66.40
2018-12-06T02:56:05.731Z,66.40
2018-12-06T02:57:05.793Z,66.10
2018-12-06T02:58:05.911Z,65.00
2018-12-06T02:59:05.002Z,64.10
2018-12-06T03:00:07.641Z,63.90
2018-12-06T03:01:08.090Z,64.00
2018-12-06T03:02:07.629Z,63.70
2018-12-06T03:03:08.187Z,63.70
2018-12-06T03:04:05.279Z,63.70
2018-12-06T03:05:07.944Z,63.90
2018-12-06T03:06:05.922Z,63.90
2018-12-06T03:07:04.930Z,64.00
2018-12-06T03:08:05.149Z,64.00
2018-12-06T03:09:05.195Z,64.20
2018-12-06T03:10:05.467Z,64.30
2018-12-06T03:11:05.603Z,64.20
2018-12-06T03:12:05.707Z,64.30
2018-12-06T03:13:05.959Z,64.40
2018-12-06T03:14:07.649Z,64.50
2018-12-06T03:15:08.075Z,64.60
2018-12-06T03:16:07.537Z,64.60
2018-12-06T03:17:05.534Z,64.60
2018-12-06T03:18:05.641Z,64.70
2018-12-06T03:19:08.385Z,65.00
2018-12-06T03:20:08.008Z,65.00
2018-12-06T03:21:07.554Z,64.90
2018-12-06T03:22:05.484Z,64.90
2018-12-06T03:23:05.815Z,64.80
2018-12-06T03:24:06.080Z,64.70
2018-12-06T03:25:05.305Z,64.30
2018-12-06T03:26:07.923Z,64.50
2018-12-06T03:27:08.528Z,64.30
2018-12-06T03:28:05.472Z,64.30
2018-12-06T03:29:07.511Z,64.30
2018-12-06T03:30:05.543Z,64.30
2018-12-06T03:31:05.712Z,64.40
2018-12-06T03:32:11.001Z,64.40
2018-12-06T03:33:07.499Z,64.30
2018-12-06T03:34:08.089Z,64.10
2018-12-06T03:35:05.134Z,64.10
2018-12-06T03:36:05.421Z,64.10
2018-12-06T03:37:05.521Z,64.20
2018-12-06T03:38:05.677Z,64.40
2018-12-06T03:39:05.838Z,64.50
2018-12-06T03:40:05.921Z,64.60
2018-12-06T03:41:07.553Z,64.70
2018-12-06T03:42:05.599Z,64.70
2018-12-06T03:43:05.676Z,64.70
2018-12-06T03:44:05.823Z,64.90
2018-12-06T03:45:06.000Z,64.90
2018-12-06T03:46:05.108Z,65.00
2018-12-06T03:47:05.392Z,65.10
2018-12-06T03:48:08.093Z,65.30
2018-12-06T03:49:07.572Z,65.40
2018-12-06T03:50:10.667Z,65.50
2018-12-06T03:51:05.680Z,65.40
2018-12-06T03:52:05.762Z,65.50
2018-12-06T03:53:05.998Z,65.40
2018-12-06T03:54:05.254Z,65.50
2018-12-06T03:55:05.086Z,65.40
2018-12-06T03:56:05.537Z,65.40
2018-12-06T03:57:08.131Z,65.40
2018-12-06T03:58:05.035Z,65.40
2018-12-06T03:59:07.629Z,65.40
2018-12-06T04:00:08.096Z,65.40
2018-12-06T04:01:05.034Z,65.40
2018-12-06T04:02:07.763Z,65.40
2018-12-06T04:03:05.794Z,65.40
2018-12-06T04:04:05.911Z,65.20
2018-12-06T04:05:05.128Z,65.00
2018-12-06T04:06:07.819Z,65.10
2018-12-06T04:07:08.277Z,65.20
2018-12-06T04:08:07.771Z,65.20
2018-12-06T04:09:08.252Z,65.30
2018-12-06T04:10:10.268Z,65.50
2018-12-06T04:11:05.333Z,65.30
2018-12-06T04:12:05.474Z,65.40
2018-12-06T04:13:05.782Z,65.50
2018-12-06T04:14:05.976Z,65.40
2018-12-06T04:15:05.058Z,65.50
2018-12-06T04:16:05.248Z,65.50
2018-12-06T04:17:05.446Z,65.50
2018-12-06T04:18:05.512Z,65.60
2018-12-06T04:19:10.855Z,65.70
2018-12-06T04:20:05.919Z,65.70
2018-12-06T04:21:05.042Z,65.70
2018-12-06T04:22:05.176Z,65.70
2018-12-06T04:23:05.272Z,65.70
2018-12-06T04:24:05.336Z,65.70
2018-12-06T04:25:05.387Z,65.90
2018-12-06T04:26:05.444Z,66.00
2018-12-06T04:27:05.776Z,66.00
2018-12-06T04:28:08.489Z,66.20
2018-12-06T04:29:05.410Z,66.10
2018-12-06T04:30:05.560Z,66.20
2018-12-06T04:31:05.675Z,66.20
2018-12-06T04:32:05.864Z,66.30
2018-12-06T04:33:04.999Z,66.40
2018-12-06T04:34:05.190Z,66.50
2018-12-06T04:35:05.602Z,66.60
2018-12-06T04:36:05.824Z,66.70
2018-12-06T04:37:06.023Z,66.70
2018-12-06T04:38:05.205Z,66.80
2018-12-06T04:39:05.369Z,66.90
2018-12-06T04:40:08.099Z,67.00
2018-12-06T04:41:05.228Z,66.90
2018-12-06T04:42:05.349Z,67.40
2018-12-06T04:43:05.713Z,67.50
2018-12-06T04:44:05.898Z,67.40
2018-12-06T04:45:05.160Z,67.50
2018-12-06T04:46:07.832Z,67.60
2018-12-06T04:47:05.772Z,67.70
2018-12-06T04:48:07.592Z,67.70
2018-12-06T04:49:05.582Z,67.80
2018-12-06T04:50:05.860Z,67.70
2018-12-06T04:51:04.972Z,67.90
2018-12-06T04:52:07.847Z,68.10
2018-12-06T04:53:08.511Z,67.90
2018-12-06T04:54:05.401Z,67.90
2018-12-06T04:55:05.494Z,68.00
2018-12-06T04:56:08.108Z,68.20
2018-12-06T04:57:05.053Z,68.10
2018-12-06T04:58:05.242Z,68.30
2018-12-06T04:59:10.399Z,68.30
2018-12-06T05:00:05.472Z,68.30
2018-12-06T05:01:05.859Z,68.30
2018-12-06T05:02:07.652Z,68.60
2018-12-06T05:03:08.140Z,68.60
2018-12-06T05:04:07.710Z,68.50
2018-12-06T05:05:05.740Z,68.50
2018-12-06T05:06:08.427Z,68.60
2018-12-06T05:07:05.397Z,68.60
2018-12-06T05:08:05.542Z,68.50
2018-12-06T05:09:10.714Z,68.60
2018-12-06T05:10:05.855Z,68.60
2018-12-06T05:11:05.043Z,68.40
2018-12-06T05:12:05.378Z,68.40
2018-12-06T05:13:05.592Z,68.40
2018-12-06T05:14:05.784Z,68.40
2018-12-06T05:15:05.911Z,68.50
2018-12-06T05:16:07.635Z,68.40
2018-12-06T05:17:05.625Z,68.50
2018-12-06T05:18:08.317Z,68.50
2018-12-06T05:19:05.339Z,68.50
2018-12-06T05:20:05.446Z,68.50
2018-12-06T05:21:05.491Z,68.60
2018-12-06T05:22:05.526Z,68.70
2018-12-06T05:23:08.261Z,68.90
2018-12-06T05:24:07.714Z,68.50
2018-12-06T05:25:08.713Z,68.50
2018-12-06T05:26:05.684Z,68.50
2018-12-06T05:27:05.694Z,68.70
2018-12-06T05:28:08.293Z,69.00
2018-12-06T05:29:05.122Z,69.00
2018-12-06T05:30:08.923Z,69.20
2018-12-06T05:31:05.882Z,69.20
2018-12-06T05:32:05.986Z,69.50
2018-12-06T05:33:05.081Z,69.70
2018-12-06T05:34:07.776Z,70.00
2018-12-06T05:35:05.758Z,70.00
2018-12-06T05:36:05.944Z,70.20
2018-12-06T05:37:05.084Z,70.50
2018-12-06T05:38:05.233Z,70.80
2018-12-06T05:39:05.321Z,70.90
2018-12-06T05:40:05.530Z,71.10
2018-12-06T05:41:14.934Z,71.60
2018-12-06T05:42:06.077Z,71.60
2018-12-06T05:43:05.184Z,71.90
2018-12-06T05:44:07.820Z,72.20
2018-12-06T05:45:08.357Z,72.20
2018-12-06T05:46:05.376Z,72.20
2018-12-06T05:47:05.632Z,72.40
2018-12-06T05:48:05.780Z,71.00
2018-12-06T05:49:05.832Z,72.70
2018-12-06T05:50:06.071Z,72.90
2018-12-06T05:51:05.191Z,73.00
2018-12-06T05:52:05.288Z,73.10
2018-12-06T05:53:05.456Z,73.10
2018-12-06T05:54:05.685Z,73.40
2018-12-06T05:55:08.312Z,73.60
2018-12-06T05:56:07.988Z,73.90
2018-12-06T05:57:05.929Z,73.80
2018-12-06T05:58:07.544Z,74.20
2018-12-06T05:59:08.078Z,74.10
2018-12-06T06:00:07.533Z,74.30
2018-12-06T06:01:07.967Z,74.80
2018-12-06T06:02:06.048Z,74.60
2018-12-06T06:03:07.712Z,74.70
2018-12-06T06:04:05.702Z,74.60
2018-12-06T06:05:08.293Z,75.00
2018-12-06T06:06:05.425Z,75.00
2018-12-06T06:07:08.110Z,75.20
2018-12-06T06:08:05.054Z,75.20
2018-12-06T06:09:05.193Z,75.20
2018-12-06T06:10:05.380Z,75.30
2018-12-06T06:11:05.756Z,75.50
2018-12-06T06:12:05.848Z,75.50
2018-12-06T06:13:04.930Z,75.50
2018-12-06T06:14:05.026Z,75.60
2018-12-06T06:15:05.092Z,75.70
2018-12-06T06:16:05.354Z,75.60
2018-12-06T06:17:05.548Z,75.80
2018-12-06T06:18:05.637Z,75.80
2018-12-06T06:19:10.795Z,75.80
2018-12-06T06:20:10.839Z,76.00
2018-12-06T06:21:05.775Z,75.90
2018-12-06T06:22:05.880Z,76.00
2018-12-06T06:23:08.468Z,76.50
2018-12-06T06:24:05.448Z,76.50
2018-12-06T06:25:08.037Z,76.60
2018-12-06T06:26:05.077Z,76.60
2018-12-06T06:27:05.166Z,76.60
2018-12-06T06:28:05.250Z,76.60
2018-12-06T06:29:08.191Z,76.50
2018-12-06T06:30:05.111Z,76.70
2018-12-06T06:31:05.261Z,76.80
2018-12-06T06:32:05.285Z,77.00
2018-12-06T06:33:05.337Z,77.00
2018-12-06T06:34:07.944Z,77.20
2018-12-06T06:35:08.414Z,77.40
2018-12-06T06:36:05.336Z,77.40
2018-12-06T06:37:05.512Z,77.30
2018-12-06T06:38:05.802Z,77.50
2018-12-06T06:39:06.080Z,77.50
2018-12-06T06:40:05.221Z,77.50
2018-12-06T06:41:07.806Z,77.60
2018-12-06T06:42:08.367Z,77.70
2018-12-06T06:43:05.300Z,77.70
2018-12-06T06:44:05.582Z,77.70
2018-12-06T06:45:05.678Z,77.90
2018-12-06T06:46:05.731Z,77.90
2018-12-06T06:47:08.522Z,78.00
2018-12-06T06:48:05.566Z,78.00
2018-12-06T06:49:05.058Z,78.20
2018-12-06T06:50:10.411Z,78.30
2018-12-06T06:51:07.958Z,78.20
2018-12-06T06:52:08.457Z,78.30
2018-12-06T06:53:05.383Z,78.30
2018-12-06T06:54:05.463Z,78.20
2018-12-06T06:55:05.527Z,78.50
2018-12-06T06:56:05.825Z,78.40
2018-12-06T06:57:07.661Z,78.40
2018-12-06T06:58:08.308Z,78.50
2018-12-06T06:59:07.984Z,78.50
2018-12-06T07:00:05.092Z,78.50
2018-12-06T07:01:05.380Z,78.80
2018-12-06T07:02:08.119Z,78.50
2018-12-06T07:03:05.206Z,78.40
2018-12-06T07:04:05.683Z,78.50
2018-12-06T07:05:08.372Z,78.60
2018-12-06T07:06:05.520Z,78.60
2018-12-06T07:07:08.364Z,78.90
2018-12-06T07:08:05.386Z,78.90
2018-12-06T07:09:05.426Z,78.90
2018-12-06T07:10:05.596Z,78.90
2018-12-06T07:11:05.672Z,78.90
2018-12-06T07:12:05.740Z,79.00
2018-12-06T07:13:05.889Z,79.00
2018-12-06T07:14:07.613Z,79.10
2018-12-06T07:15:08.107Z,79.30
2018-12-06T07:16:05.172Z,79.30
2018-12-06T07:17:05.372Z,79.30
2018-12-06T07:18:05.416Z,79.30
2018-12-06T07:19:08.034Z,79.40
2018-12-06T07:20:05.081Z,79.40
2018-12-06T07:21:07.722Z,79.50
2018-12-06T07:22:08.238Z,79.50
2018-12-06T07:23:05.304Z,79.50
2018-12-06T07:24:05.434Z,79.80
2018-12-06T07:25:05.520Z,79.80
2018-12-06T07:26:08.187Z,79.70
2018-12-06T07:27:05.148Z,79.70
2018-12-06T07:28:05.296Z,79.70
2018-12-06T07:29:08.237Z,79.70
2018-12-06T07:30:12.791Z,79.70
2018-12-06T07:31:05.035Z,79.90
2018-12-06T07:32:07.731Z,79.70
2018-12-06T07:33:05.788Z,79.70
2018-12-06T07:34:05.906Z,79.70
2018-12-06T07:35:07.536Z,79.80
2018-12-06T07:36:08.043Z,79.90
2018-12-06T07:37:07.604Z,79.90
2018-12-06T07:38:05.651Z,79.70
2018-12-06T07:39:08.303Z,79.90
2018-12-06T07:40:05.479Z,79.90
2018-12-06T07:41:05.671Z,79.90
2018-12-06T07:42:05.942Z,79.90
2018-12-06T07:43:05.114Z,80.10
2018-12-06T07:44:05.240Z,80.00
2018-12-06T07:45:07.892Z,80.10
2018-12-06T07:46:08.322Z,80.20
2018-12-06T07:47:07.930Z,80.10
2018-12-06T07:48:06.133Z,80.20
2018-12-06T07:49:07.830Z,80.40
2018-12-06T07:50:05.750Z,80.40
2018-12-06T07:51:05.082Z,80.50
2018-12-06T07:52:05.357Z,80.50
2018-12-06T07:53:05.502Z,80.80
2018-12-06T07:54:05.621Z,80.80
2018-12-06T07:55:05.933Z,80.80
2018-12-06T07:56:05.046Z,80.80
2018-12-06T07:57:05.160Z,80.80
2018-12-06T07:58:05.444Z,80.90
2018-12-06T07:59:05.711Z,80.70
2018-12-06T08:00:05.890Z,81.10
2018-12-06T08:01:07.528Z,81.10
2018-12-06T08:02:08.155Z,81.10
2018-12-06T08:03:05.209Z,81.10
2018-12-06T08:04:07.934Z,81.00
2018-12-06T08:05:06.015Z,81.00
2018-12-06T08:06:07.838Z,81.10
2018-12-06T08:07:05.951Z,81.10
2018-12-06T08:08:07.582Z,81.10
2018-12-06T08:09:08.040Z,80.90
2018-12-06T08:10:05.055Z,80.90
2018-12-06T08:11:05.194Z,81.00
2018-12-06T08:12:07.818Z,81.10
2018-12-06T08:13:05.910Z,81.10
2018-12-06T08:14:07.574Z,81.10
2018-12-06T08:15:10.582Z,81.10
2018-12-06T08:16:08.049Z,81.10
2018-12-06T08:17:05.069Z,81.10
2018-12-06T08:18:05.225Z,81.10
2018-12-06T08:19:07.918Z,81.20
2018-12-06T08:20:08.469Z,81.20
2018-12-06T08:21:05.451Z,81.20
2018-12-06T08:22:08.257Z,81.20
2018-12-06T08:23:05.286Z,81.20
2018-12-06T08:24:05.473Z,81.20
2018-12-06T08:25:05.556Z,81.20
2018-12-06T08:26:08.218Z,81.20
2018-12-06T08:27:07.748Z,81.30
2018-12-06T08:28:05.759Z,81.40
2018-12-06T08:29:07.779Z,81.40
2018-12-06T08:30:05.814Z,81.40
2018-12-06T08:31:05.899Z,81.40
2018-12-06T08:32:07.515Z,81.40
2018-12-06T08:33:05.439Z,81.40
2018-12-06T08:34:06.803Z,81.40
2018-12-06T08:35:05.026Z,81.40
2018-12-06T08:36:10.219Z,81.40
2018-12-06T08:37:05.271Z,81.40
2018-12-06T08:38:08.089Z,81.40
2018-12-06T08:39:07.588Z,81.60
2018-12-06T08:40:08.185Z,81.50
2018-12-06T08:41:07.675Z,81.60
2018-12-06T08:42:05.613Z,81.60
2018-12-06T08:43:05.794Z,81.60
2018-12-06T08:44:05.930Z,81.70
2018-12-06T08:45:05.053Z,81.70
2018-12-06T08:46:07.712Z,82.00
2018-12-06T08:47:08.267Z,82.10
2018-12-06T08:48:05.354Z,82.10
2018-12-06T08:49:08.131Z,82.10
2018-12-06T08:50:10.292Z,82.10
2018-12-06T08:51:05.405Z,82.10
2018-12-06T08:52:05.523Z,82.10
2018-12-06T08:53:05.709Z,82.10
2018-12-06T08:54:05.835Z,82.00
2018-12-06T08:55:05.886Z,82.00
2018-12-06T08:56:07.578Z,82.10
2018-12-06T08:57:05.556Z,82.10
2018-12-06T08:58:08.180Z,82.10
2018-12-06T08:59:10.372Z,82.20
2018-12-06T09:00:07.783Z,82.30
2018-12-06T09:01:05.749Z,82.30
2018-12-06T09:02:08.467Z,82.60
2018-12-06T09:03:08.104Z,82.80
2018-12-06T09:04:05.200Z,82.80
2018-12-06T09:05:05.346Z,82.60
2018-12-06T09:06:05.405Z,82.40
2018-12-06T09:07:08.007Z,82.30
2018-12-06T09:08:05.020Z,82.30
2018-12-06T09:09:05.275Z,82.30
2018-12-06T09:10:05.497Z,82.50
2018-12-06T09:11:05.637Z,82.40
2018-12-06T09:12:05.747Z,82.40
2018-12-06T09:13:05.098Z,82.40
2018-12-06T09:14:07.746Z,82.40
2018-12-06T09:15:05.804Z,82.40
2018-12-06T09:16:08.439Z,82.40
2018-12-06T09:17:07.965Z,82.40
2018-12-06T09:18:08.474Z,82.40
2018-12-06T09:19:05.526Z,82.40
2018-12-06T09:20:10.560Z,82.40
2018-12-06T09:21:05.617Z,82.40
2018-12-06T09:22:08.278Z,82.90
2018-12-06T09:23:05.267Z,82.90
2018-12-06T09:24:05.427Z,82.90
2018-12-06T09:25:05.615Z,83.00
2018-12-06T09:26:08.214Z,83.20
2018-12-06T09:27:05.265Z,83.20
2018-12-06T09:28:05.376Z,83.30
2018-12-06T09:29:05.768Z,83.40
2018-12-06T09:30:08.459Z,83.50
2018-12-06T09:31:05.586Z,83.60
2018-12-06T09:32:05.739Z,83.60
2018-12-06T09:33:05.797Z,83.80
2018-12-06T09:34:08.438Z,83.60
2018-12-06T09:35:05.488Z,83.60
2018-12-06T09:36:05.582Z,83.60
2018-12-06T09:37:05.635Z,83.60
2018-12-06T09:38:05.852Z,83.60
2018-12-06T09:39:05.955Z,83.80
2018-12-06T09:40:05.139Z,83.70
2018-12-06T09:41:07.757Z,83.70
2018-12-06T09:42:05.741Z,83.70
2018-12-06T09:43:05.786Z,83.80
2018-12-06T09:44:05.882Z,83.90
2018-12-06T09:45:06.062Z,84.00
2018-12-06T09:46:07.665Z,84.00
2018-12-06T09:47:08.078Z,84.10
2018-12-06T09:48:05.074Z,84.10
2018-12-06T09:49:08.063Z,84.40
2018-12-06T09:50:07.538Z,84.20
2018-12-06T09:51:05.588Z,84.20
2018-12-06T09:52:10.941Z,84.40
2018-12-06T09:53:05.923Z,84.50
2018-12-06T09:54:04.991Z,84.50
2018-12-06T09:55:05.624Z,84.50
2018-12-06T09:56:05.726Z,84.80
2018-12-06T09:57:08.319Z,84.70
2018-12-06T09:58:05.383Z,84.70
2018-12-06T09:59:10.598Z,84.70
2018-12-06T10:00:05.631Z,84.70
2018-12-06T10:01:10.791Z,85.00
2018-12-06T10:02:05.895Z,84.90
2018-12-06T10:03:05.028Z,85.10
2018-12-06T10:04:07.766Z,85.40
2018-12-06T10:05:05.740Z,85.40
2018-12-06T10:06:08.351Z,85.70
2018-12-06T10:07:07.779Z,85.80
2018-12-06T10:08:08.244Z,86.00
2018-12-06T10:09:07.661Z,85.80
2018-12-06T10:10:05.701Z,85.90
2018-12-06T10:11:11.003Z,85.70
2018-12-06T10:12:04.982Z,85.70
2018-12-06T10:13:05.067Z,85.80
2018-12-06T10:14:07.751Z,86.10
2018-12-06T10:15:08.231Z,85.80
2018-12-06T10:16:05.209Z,85.80
2018-12-06T10:17:07.885Z,85.70
2018-12-06T10:18:08.464Z,85.70
2018-12-06T10:19:05.467Z,85.70
2018-12-06T10:20:05.568Z,85.60
2018-12-06T10:21:05.640Z,85.40
2018-12-06T10:22:05.764Z,85.30
2018-12-06T10:23:05.855Z,84.80
2018-12-06T10:24:05.164Z,84.80
2018-12-06T10:25:05.294Z,84.90
2018-12-06T10:26:05.426Z,84.60
2018-12-06T10:27:05.665Z,84.80
2018-12-06T10:28:16.068Z,84.50
2018-12-06T10:29:05.122Z,84.50
2018-12-06T10:30:07.779Z,84.40
2018-12-06T10:31:05.768Z,84.50
2018-12-06T10:32:05.908Z,84.40
2018-12-06T10:33:07.580Z,83.90
2018-12-06T10:34:05.533Z,83.90
2018-12-06T10:35:08.227Z,84.00
2018-12-06T10:36:05.231Z,84.00
2018-12-06T10:37:10.467Z,84.00
2018-12-06T10:38:07.914Z,84.20
2018-12-06T10:39:05.865Z,84.10
2018-12-06T10:40:08.531Z,84.20
2018-12-06T10:41:05.637Z,84.20
2018-12-06T10:42:05.803Z,84.10
2018-12-06T10:43:05.966Z,84.00
2018-12-06T10:44:05.074Z,84.00
2018-12-06T10:45:05.248Z,83.80
2018-12-06T10:46:05.389Z,83.90
2018-12-06T10:47:05.474Z,84.00
2018-12-06T10:48:08.073Z,85.00
2018-12-06T10:49:05.147Z,85.00
2018-12-06T10:50:05.344Z,85.20
2018-12-06T10:51:08.070Z,85.30
2018-12-06T10:52:10.166Z,85.30
2018-12-06T10:53:05.302Z,85.40
2018-12-06T10:54:05.484Z,85.20
2018-12-06T10:55:05.625Z,85.40
2018-12-06T10:56:08.200Z,85.50
2018-12-06T10:57:05.147Z,85.50
2018-12-06T10:58:05.383Z,85.50
2018-12-06T10:59:05.653Z,85.70
2018-12-06T11:00:08.239Z,85.90
2018-12-06T11:01:07.710Z,85.90
2018-12-06T11:02:08.182Z,86.00
2018-12-06T11:03:05.153Z,86.00
2018-12-06T11:04:07.755Z,86.20
2018-12-06T11:05:08.481Z,86.20
2018-12-06T11:06:05.501Z,86.20
2018-12-06T11:07:05.607Z,86.20
2018-12-06T11:08:05.707Z,86.20
2018-12-06T11:09:05.844Z,86.10
2018-12-06T11:10:08.566Z,86.40
2018-12-06T11:11:08.220Z,86.40
2018-12-06T11:12:10.230Z,86.40
2018-12-06T11:13:05.146Z,86.40
2018-12-06T11:14:05.190Z,86.30
2018-12-06T11:15:07.936Z,86.60
2018-12-06T11:16:05.938Z,86.60
2018-12-06T11:17:05.259Z,86.60
2018-12-06T11:18:05.312Z,86.60
2018-12-06T11:19:05.500Z,86.50
2018-12-06T11:20:05.738Z,86.60
2018-12-06T11:21:05.995Z,86.60
2018-12-06T11:22:05.244Z,86.70
2018-12-06T11:23:05.338Z,86.70
2018-12-06T11:24:05.421Z,86.70
2018-12-06T11:25:05.493Z,86.70
2018-12-06T11:26:05.557Z,86.60
2018-12-06T11:27:05.779Z,86.50
2018-12-06T11:28:05.924Z,86.40
2018-12-06T11:29:07.880Z,86.30
2018-12-06T11:30:06.378Z,86.30
2018-12-06T11:31:05.559Z,86.20
2018-12-06T11:32:05.770Z,86.20
2018-12-06T11:33:05.898Z,86.20
2018-12-06T11:34:08.513Z,86.20
2018-12-06T11:35:05.451Z,86.20
2018-12-06T11:36:05.509Z,86.10
2018-12-06T11:37:05.621Z,86.10
2018-12-06T11:38:08.363Z,85.90
2018-12-06T11:39:08.038Z,85.70
2018-12-06T11:40:05.031Z,85.80
2018-12-06T11:41:05.122Z,85.90
2018-12-06T11:42:05.367Z,85.60
2018-12-06T11:43:05.616Z,85.60
2018-12-06T11:44:05.875Z,85.70
2018-12-06T11:45:07.613Z,85.70
2018-12-06T11:46:05.688Z,85.60
2018-12-06T11:47:05.962Z,85.70
2018-12-06T11:48:05.102Z,85.70
2018-12-06T11:49:05.420Z,85.50
2018-12-06T11:50:05.605Z,86.10
2018-12-06T11:51:10.790Z,85.80
2018-12-06T11:52:08.310Z,85.80
2018-12-06T11:53:07.768Z,85.70
2018-12-06T11:54:05.700Z,85.80
2018-12-06T11:55:05.879Z,85.80
2018-12-06T11:56:05.161Z,85.30
2018-12-06T11:57:07.831Z,85.50
2018-12-06T11:58:11.927Z,85.50
2018-12-06T11:59:05.022Z,85.50
2018-12-06T12:00:05.244Z,85.50
2018-12-06T12:01:05.429Z,85.60
2018-12-06T12:02:10.435Z,85.40
2018-12-06T12:03:05.543Z,85.30
2018-12-06T12:04:08.191Z,85.40
2018-12-06T12:05:05.107Z,85.40
2018-12-06T12:06:05.159Z,85.30
2018-12-06T12:07:05.175Z,85.30
2018-12-06T12:08:07.730Z,85.40
2018-12-06T12:09:08.212Z,85.40
2018-12-06T12:10:07.698Z,85.30
2018-12-06T12:11:05.722Z,85.30
2018-12-06T12:12:05.759Z,85.40
2018-12-06T12:13:08.375Z,85.40
2018-12-06T12:14:05.489Z,85.30
2018-12-06T12:15:05.597Z,85.30
2018-12-06T12:16:08.178Z,85.30
2018-12-06T12:17:07.662Z,85.30
2018-12-06T12:18:05.758Z,85.30
2018-12-06T12:19:08.378Z,85.30
2018-12-06T12:20:05.915Z,85.30
2018-12-06T12:21:07.599Z,85.30
2018-12-06T12:22:08.191Z,85.50
2018-12-06T12:23:05.141Z,85.10
2018-12-06T12:24:07.929Z,85.20
2018-12-06T12:25:08.556Z,85.60
2018-12-06T12:26:08.165Z,85.20
2018-12-06T12:27:05.130Z,85.10
2018-12-06T12:28:05.290Z,85.10
2018-12-06T12:29:05.630Z,85.00
2018-12-06T12:30:08.198Z,84.90
2018-12-06T12:31:07.730Z,85.10
2018-12-06T12:32:05.778Z,84.90
2018-12-06T12:33:05.974Z,84.90
2018-12-06T12:34:05.080Z,84.90
2018-12-06T12:35:05.251Z,85.10
2018-12-06T12:36:12.889Z,84.80
2018-12-06T12:37:05.998Z,84.80
2018-12-06T12:38:07.665Z,84.90
2018-12-06T12:39:05.690Z,84.80
2018-12-06T12:40:05.769Z,84.90
2018-12-06T12:41:05.930Z,84.80
2018-12-06T12:42:05.165Z,84.90
2018-12-06T12:43:07.871Z,84.80
2018-12-06T12:44:10.949Z,84.80
2018-12-06T12:45:10.950Z,84.80
2018-12-06T12:46:05.904Z,84.80
2018-12-06T12:47:07.528Z,84.80
2018-12-06T12:48:10.410Z,84.90
2018-12-06T12:49:08.100Z,84.50
2018-12-06T12:50:05.176Z,84.50
2018-12-06T12:51:07.722Z,84.40
2018-12-06T12:52:05.678Z,84.40
2018-12-06T12:53:05.801Z,84.50